sensor_id;sensor_type;location;lat;lon;timestamp;P1;durP1;ratioP1;P2;durP2;ratioP2
78148;SDS011;67396;42.664;23.382;2024-02-26T00:00:02;38.58;;;20.20;;
78148;SDS011;67396;42.664;23.382;2024-02-26T00:02:29;35.95;;;18.60;;
78148;SDS011;67396;42.664;23.382;2024-02-26T00:04:55;35.55;;;20.23;;
78148;SDS011;67396;42.664;23.382;2024-02-26T00:07:20;38.83;;;19.42;;
78148;SDS011;67396;42.664;23.382;2024-02-26T00:09:46;38.33;;;21.20;;
78148;SDS011;67396;42.664;23.382;2024-02-26T00:12:12;44.58;;;21.33;;
78148;SDS011;67396;42.664;23.382;2024-02-26T00:14:37;43.25;;;22.35;;
78148;SDS011;67396;42.664;23.382;2024-02-26T00:17:03;35.90;;;19.60;;
78148;SDS011;67396;42.664;23.382;2024-02-26T00:19:31;33.67;;;18.65;;
78148;SDS011;67396;42.664;23.382;2024-02-26T00:21:58;32.60;;;16.73;;
78148;SDS011;67396;42.664;23.382;2024-02-26T00:24:24;30.13;;;16.25;;
78148;SDS011;67396;42.664;23.382;2024-02-26T00:26:51;29.55;;;16.13;;
78148;SDS011;67396;42.664;23.382;2024-02-26T00:29:20;27.63;;;16.65;;
78148;SDS011;67396;42.664;23.382;2024-02-26T00:31:45;27.52;;;15.85;;
78148;SDS011;67396;42.664;23.382;2024-02-26T00:34:11;28.92;;;15.70;;
78148;SDS011;67396;42.664;23.382;2024-02-26T00:36:36;36.58;;;18.27;;
78148;SDS011;67396;42.664;23.382;2024-02-26T00:39:05;35.10;;;17.58;;
78148;SDS011;67396;42.664;23.382;2024-02-26T00:41:31;32.13;;;16.98;;
78148;SDS011;67396;42.664;23.382;2024-02-26T00:43:57;29.95;;;18.33;;
78148;SDS011;67396;42.664;23.382;2024-02-26T00:46:26;31.73;;;17.83;;
78148;SDS011;67396;42.664;23.382;2024-02-26T00:48:52;32.60;;;17.73;;
78148;SDS011;67396;42.664;23.382;2024-02-26T00:51:20;29.23;;;16.25;;
78148;SDS011;67396;42.664;23.382;2024-02-26T00:53:46;31.25;;;17.73;;
78148;SDS011;67396;42.664;23.382;2024-02-26T00:56:12;28.80;;;13.95;;
78148;SDS011;67396;42.664;23.382;2024-02-26T00:58:37;21.92;;;12.73;;
78148;SDS011;67396;42.664;23.382;2024-02-26T01:01:03;22.48;;;12.50;;
78148;SDS011;67396;42.664;23.382;2024-02-26T01:03:29;19.27;;;11.13;;
78148;SDS011;67396;42.664;23.382;2024-02-26T01:05:55;26.55;;;13.30;;
78148;SDS011;67396;42.664;23.382;2024-02-26T01:08:20;23.40;;;13.30;;
78148;SDS011;67396;42.664;23.382;2024-02-26T01:10:46;31.48;;;15.55;;
78148;SDS011;67396;42.664;23.382;2024-02-26T01:13:12;27.80;;;15.93;;
78148;SDS011;67396;42.664;23.382;2024-02-26T01:15:39;28.85;;;15.48;;
78148;SDS011;67396;42.664;23.382;2024-02-26T01:18:05;25.95;;;15.55;;
78148;SDS011;67396;42.664;23.382;2024-02-26T01:20:30;26.83;;;15.00;;
78148;SDS011;67396;42.664;23.382;2024-02-26T01:23:02;23.88;;;13.45;;
78148;SDS011;67396;42.664;23.382;2024-02-26T01:25:28;29.65;;;15.30;;
78148;SDS011;67396;42.664;23.382;2024-02-26T01:27:54;22.65;;;13.85;;
78148;SDS011;67396;42.664;23.382;2024-02-26T01:30:20;36.08;;;15.68;;
78148;SDS011;67396;42.664;23.382;2024-02-26T01:32:45;29.70;;;13.77;;
78148;SDS011;67396;42.664;23.382;2024-02-26T01:35:11;22.90;;;13.95;;
78148;SDS011;67396;42.664;23.382;2024-02-26T01:37:38;30.92;;;14.43;;
78148;SDS011;67396;42.664;23.382;2024-02-26T01:40:06;28.45;;;14.77;;
78148;SDS011;67396;42.664;23.382;2024-02-26T01:42:35;26.92;;;14.93;;
78148;SDS011;67396;42.664;23.382;2024-02-26T01:45:08;29.08;;;16.23;;
78148;SDS011;67396;42.664;23.382;2024-02-26T01:47:47;28.35;;;16.30;;
78148;SDS011;67396;42.664;23.382;2024-02-26T01:50:15;29.50;;;15.88;;
78148;SDS011;67396;42.664;23.382;2024-02-26T01:52:42;28.30;;;16.75;;
78148;SDS011;67396;42.664;23.382;2024-02-26T01:55:08;23.38;;;14.60;;
78148;SDS011;67396;42.664;23.382;2024-02-26T01:57:37;25.17;;;15.27;;
78148;SDS011;67396;42.664;23.382;2024-02-26T02:00:03;23.20;;;14.00;;
78148;SDS011;67396;42.664;23.382;2024-02-26T02:02:31;24.88;;;14.55;;
78148;SDS011;67396;42.664;23.382;2024-02-26T02:04:57;25.63;;;13.45;;
78148;SDS011;67396;42.664;23.382;2024-02-26T02:07:22;23.98;;;12.65;;
78148;SDS011;67396;42.664;23.382;2024-02-26T02:09:50;20.48;;;13.05;;
78148;SDS011;67396;42.664;23.382;2024-02-26T02:12:15;25.55;;;13.68;;
78148;SDS011;67396;42.664;23.382;2024-02-26T02:14:42;22.33;;;12.05;;
78148;SDS011;67396;42.664;23.382;2024-02-26T02:17:07;21.73;;;11.77;;
78148;SDS011;67396;42.664;23.382;2024-02-26T02:19:33;22.98;;;12.00;;
78148;SDS011;67396;42.664;23.382;2024-02-26T02:21:59;22.52;;;12.20;;
78148;SDS011;67396;42.664;23.382;2024-02-26T02:24:28;19.42;;;12.60;;
78148;SDS011;67396;42.664;23.382;2024-02-26T02:26:54;29.17;;;13.27;;
78148;SDS011;67396;42.664;23.382;2024-02-26T02:29:21;18.60;;;11.32;;
78148;SDS011;67396;42.664;23.382;2024-02-26T02:31:47;20.63;;;11.75;;
78148;SDS011;67396;42.664;23.382;2024-02-26T02:34:13;20.38;;;12.25;;
78148;SDS011;67396;42.664;23.382;2024-02-26T02:36:57;18.15;;;10.75;;
78148;SDS011;67396;42.664;23.382;2024-02-26T02:39:23;19.63;;;10.98;;
78148;SDS011;67396;42.664;23.382;2024-02-26T02:41:49;20.40;;;10.48;;
78148;SDS011;67396;42.664;23.382;2024-02-26T02:44:15;22.88;;;12.68;;
78148;SDS011;67396;42.664;23.382;2024-02-26T02:46:41;19.83;;;11.05;;
78148;SDS011;67396;42.664;23.382;2024-02-26T02:49:10;17.65;;;11.73;;
78148;SDS011;67396;42.664;23.382;2024-02-26T02:51:36;22.83;;;10.20;;
78148;SDS011;67396;42.664;23.382;2024-02-26T02:54:05;27.50;;;12.18;;
78148;SDS011;67396;42.664;23.382;2024-02-26T02:56:31;23.13;;;12.48;;
78148;SDS011;67396;42.664;23.382;2024-02-26T02:58:57;20.00;;;12.18;;
78148;SDS011;67396;42.664;23.382;2024-02-26T03:01:25;16.58;;;10.07;;
78148;SDS011;67396;42.664;23.382;2024-02-26T03:03:52;18.15;;;10.43;;
78148;SDS011;67396;42.664;23.382;2024-02-26T03:06:17;19.38;;;12.57;;
78148;SDS011;67396;42.664;23.382;2024-02-26T03:08:43;20.05;;;11.68;;
78148;SDS011;67396;42.664;23.382;2024-02-26T03:11:13;20.77;;;12.35;;
78148;SDS011;67396;42.664;23.382;2024-02-26T03:13:40;25.75;;;12.63;;
78148;SDS011;67396;42.664;23.382;2024-02-26T03:16:06;21.92;;;13.00;;
78148;SDS011;67396;42.664;23.382;2024-02-26T03:18:32;19.58;;;11.88;;
78148;SDS011;67396;42.664;23.382;2024-02-26T03:20:58;20.70;;;11.32;;
78148;SDS011;67396;42.664;23.382;2024-02-26T03:23:24;21.85;;;12.20;;
78148;SDS011;67396;42.664;23.382;2024-02-26T03:25:50;22.50;;;12.15;;
78148;SDS011;67396;42.664;23.382;2024-02-26T03:28:16;24.48;;;11.95;;
78148;SDS011;67396;42.664;23.382;2024-02-26T03:30:47;18.38;;;11.65;;
78148;SDS011;67396;42.664;23.382;2024-02-26T03:33:12;24.75;;;13.57;;
78148;SDS011;67396;42.664;23.382;2024-02-26T03:35:38;21.95;;;12.10;;
78148;SDS011;67396;42.664;23.382;2024-02-26T03:38:04;21.35;;;12.65;;
78148;SDS011;67396;42.664;23.382;2024-02-26T03:40:30;24.17;;;13.43;;
78148;SDS011;67396;42.664;23.382;2024-02-26T03:42:56;24.00;;;12.07;;
78148;SDS011;67396;42.664;23.382;2024-02-26T03:45:23;22.73;;;13.18;;
78148;SDS011;67396;42.664;23.382;2024-02-26T03:47:52;24.42;;;12.52;;
78148;SDS011;67396;42.664;23.382;2024-02-26T03:50:18;21.48;;;12.07;;
78148;SDS011;67396;42.664;23.382;2024-02-26T03:52:44;20.90;;;12.48;;
78148;SDS011;67396;42.664;23.382;2024-02-26T03:55:10;22.63;;;12.75;;
78148;SDS011;67396;42.664;23.382;2024-02-26T03:57:36;21.15;;;11.10;;
78148;SDS011;67396;42.664;23.382;2024-02-26T04:00:01;17.85;;;9.95;;
78148;SDS011;67396;42.664;23.382;2024-02-26T04:02:28;25.02;;;12.95;;
78148;SDS011;67396;42.664;23.382;2024-02-26T04:04:54;27.10;;;13.20;;
78148;SDS011;67396;42.664;23.382;2024-02-26T04:07:19;29.33;;;15.20;;
78148;SDS011;67396;42.664;23.382;2024-02-26T04:09:45;29.50;;;15.82;;
78148;SDS011;67396;42.664;23.382;2024-02-26T04:12:11;38.17;;;19.60;;
78148;SDS011;67396;42.664;23.382;2024-02-26T04:14:37;25.38;;;13.68;;
78148;SDS011;67396;42.664;23.382;2024-02-26T04:17:06;18.63;;;9.85;;
78148;SDS011;67396;42.664;23.382;2024-02-26T04:19:32;19.77;;;10.32;;
78148;SDS011;67396;42.664;23.382;2024-02-26T04:21:59;17.10;;;9.00;;
78148;SDS011;67396;42.664;23.382;2024-02-26T04:24:25;19.25;;;10.00;;
78148;SDS011;67396;42.664;23.382;2024-02-26T04:26:51;16.55;;;8.57;;
78148;SDS011;67396;42.664;23.382;2024-02-26T04:29:17;12.75;;;8.10;;
78148;SDS011;67396;42.664;23.382;2024-02-26T04:31:43;15.23;;;8.85;;
78148;SDS011;67396;42.664;23.382;2024-02-26T04:34:09;16.50;;;8.63;;
78148;SDS011;67396;42.664;23.382;2024-02-26T04:36:37;15.20;;;9.43;;
78148;SDS011;67396;42.664;23.382;2024-02-26T04:39:02;11.38;;;8.13;;
78148;SDS011;67396;42.664;23.382;2024-02-26T04:41:28;10.93;;;7.07;;
78148;SDS011;67396;42.664;23.382;2024-02-26T04:43:54;12.90;;;8.43;;
78148;SDS011;67396;42.664;23.382;2024-02-26T04:46:20;21.33;;;10.52;;
78148;SDS011;67396;42.664;23.382;2024-02-26T04:48:47;24.13;;;14.82;;
78148;SDS011;67396;42.664;23.382;2024-02-26T04:51:16;29.05;;;17.50;;
78148;SDS011;67396;42.664;23.382;2024-02-26T04:53:42;31.80;;;20.23;;
78148;SDS011;67396;42.664;23.382;2024-02-26T04:56:07;33.85;;;20.05;;
78148;SDS011;67396;42.664;23.382;2024-02-26T04:58:33;40.10;;;22.00;;
78148;SDS011;67396;42.664;23.382;2024-02-26T05:01:00;36.85;;;21.38;;
78148;SDS011;67396;42.664;23.382;2024-02-26T05:03:26;36.55;;;20.75;;
78148;SDS011;67396;42.664;23.382;2024-02-26T05:05:52;38.22;;;19.77;;
78148;SDS011;67396;42.664;23.382;2024-02-26T05:08:17;38.00;;;20.63;;
78148;SDS011;67396;42.664;23.382;2024-02-26T05:10:45;37.28;;;21.98;;
78148;SDS011;67396;42.664;23.382;2024-02-26T05:13:11;39.17;;;21.52;;
78148;SDS011;67396;42.664;23.382;2024-02-26T05:15:37;46.03;;;23.05;;
78148;SDS011;67396;42.664;23.382;2024-02-26T05:18:03;39.70;;;22.10;;
78148;SDS011;67396;42.664;23.382;2024-02-26T05:20:29;37.20;;;19.75;;
78148;SDS011;67396;42.664;23.382;2024-02-26T05:22:54;39.92;;;20.85;;
78148;SDS011;67396;42.664;23.382;2024-02-26T05:25:20;40.17;;;20.42;;
78148;SDS011;67396;42.664;23.382;2024-02-26T05:27:50;37.58;;;19.80;;
78148;SDS011;67396;42.664;23.382;2024-02-26T05:30:16;34.53;;;19.75;;
78148;SDS011;67396;42.664;23.382;2024-02-26T05:32:42;36.67;;;20.65;;
78148;SDS011;67396;42.664;23.382;2024-02-26T05:35:08;37.60;;;20.50;;
78148;SDS011;67396;42.664;23.382;2024-02-26T05:37:34;45.47;;;24.05;;
78148;SDS011;67396;42.664;23.382;2024-02-26T05:39:59;43.65;;;23.08;;
78148;SDS011;67396;42.664;23.382;2024-02-26T05:42:25;39.72;;;21.98;;
78148;SDS011;67396;42.664;23.382;2024-02-26T05:44:51;40.67;;;22.17;;
78148;SDS011;67396;42.664;23.382;2024-02-26T05:47:20;41.42;;;22.40;;
78148;SDS011;67396;42.664;23.382;2024-02-26T05:49:46;181.65;;;91.82;;
78148;SDS011;67396;42.664;23.382;2024-02-26T05:52:11;85.03;;;44.53;;
78148;SDS011;67396;42.664;23.382;2024-02-26T05:54:37;53.10;;;30.60;;
78148;SDS011;67396;42.664;23.382;2024-02-26T05:57:03;41.17;;;22.98;;
78148;SDS011;67396;42.664;23.382;2024-02-26T05:59:29;39.58;;;22.23;;
78148;SDS011;67396;42.664;23.382;2024-02-26T06:01:55;89.82;;;44.97;;
78148;SDS011;67396;42.664;23.382;2024-02-26T06:04:24;45.80;;;23.65;;
78148;SDS011;67396;42.664;23.382;2024-02-26T06:06:49;49.97;;;23.75;;
78148;SDS011;67396;42.664;23.382;2024-02-26T06:09:15;38.40;;;22.83;;
78148;SDS011;67396;42.664;23.382;2024-02-26T06:11:41;36.78;;;21.13;;
78148;SDS011;67396;42.664;23.382;2024-02-26T06:14:07;39.00;;;21.90;;
78148;SDS011;67396;42.664;23.382;2024-02-26T06:16:32;42.88;;;20.58;;
78148;SDS011;67396;42.664;23.382;2024-02-26T06:18:58;46.38;;;26.98;;
78148;SDS011;67396;42.664;23.382;2024-02-26T06:21:25;46.63;;;24.63;;
78148;SDS011;67396;42.664;23.382;2024-02-26T06:23:51;38.53;;;20.45;;
78148;SDS011;67396;42.664;23.382;2024-02-26T06:26:17;33.03;;;19.02;;
78148;SDS011;67396;42.664;23.382;2024-02-26T06:28:43;32.35;;;20.35;;
78148;SDS011;67396;42.664;23.382;2024-02-26T06:31:09;37.58;;;17.33;;
78148;SDS011;67396;42.664;23.382;2024-02-26T06:33:35;31.33;;;16.23;;
78148;SDS011;67396;42.664;23.382;2024-02-26T06:36:01;52.55;;;26.23;;
78148;SDS011;67396;42.664;23.382;2024-02-26T06:38:27;43.13;;;21.75;;
78148;SDS011;67396;42.664;23.382;2024-02-26T06:40:56;38.25;;;18.42;;
78148;SDS011;67396;42.664;23.382;2024-02-26T06:43:22;24.52;;;15.43;;
78148;SDS011;67396;42.664;23.382;2024-02-26T06:45:47;40.90;;;16.88;;
78148;SDS011;67396;42.664;23.382;2024-02-26T06:48:13;31.52;;;17.52;;
78148;SDS011;67396;42.664;23.382;2024-02-26T06:50:39;31.35;;;18.30;;
78148;SDS011;67396;42.664;23.382;2024-02-26T06:53:06;32.40;;;19.60;;
78148;SDS011;67396;42.664;23.382;2024-02-26T06:55:32;35.58;;;22.40;;
78148;SDS011;67396;42.664;23.382;2024-02-26T06:57:58;35.33;;;19.30;;
78148;SDS011;67396;42.664;23.382;2024-02-26T07:00:24;36.72;;;22.13;;
78148;SDS011;67396;42.664;23.382;2024-02-26T07:02:52;34.97;;;19.20;;
78148;SDS011;67396;42.664;23.382;2024-02-26T07:05:19;40.15;;;22.90;;
78148;SDS011;67396;42.664;23.382;2024-02-26T07:07:44;45.63;;;27.83;;
78148;SDS011;67396;42.664;23.382;2024-02-26T07:10:10;55.05;;;30.92;;
78148;SDS011;67396;42.664;23.382;2024-02-26T07:12:37;46.80;;;28.50;;
78148;SDS011;67396;42.664;23.382;2024-02-26T07:15:03;37.45;;;23.00;;
78148;SDS011;67396;42.664;23.382;2024-02-26T07:17:32;36.75;;;20.10;;
78148;SDS011;67396;42.664;23.382;2024-02-26T07:19:59;38.47;;;20.27;;
78148;SDS011;67396;42.664;23.382;2024-02-26T07:22:25;32.58;;;16.98;;
78148;SDS011;67396;42.664;23.382;2024-02-26T07:24:51;15.43;;;7.93;;
78148;SDS011;67396;42.664;23.382;2024-02-26T07:27:20;19.63;;;12.50;;
78148;SDS011;67396;42.664;23.382;2024-02-26T07:29:46;24.25;;;12.30;;
78148;SDS011;67396;42.664;23.382;2024-02-26T07:32:12;24.05;;;13.23;;
78148;SDS011;67396;42.664;23.382;2024-02-26T07:34:38;22.92;;;13.45;;
78148;SDS011;67396;42.664;23.382;2024-02-26T07:37:07;28.08;;;13.68;;
78148;SDS011;67396;42.664;23.382;2024-02-26T07:39:33;27.27;;;14.25;;
78148;SDS011;67396;42.664;23.382;2024-02-26T07:41:59;24.30;;;12.35;;
78148;SDS011;67396;42.664;23.382;2024-02-26T07:44:25;16.20;;;10.45;;
78148;SDS011;67396;42.664;23.382;2024-02-26T07:46:51;21.63;;;11.93;;
78148;SDS011;67396;42.664;23.382;2024-02-26T07:49:17;24.65;;;11.98;;
78148;SDS011;67396;42.664;23.382;2024-02-26T07:51:43;25.30;;;14.43;;
78148;SDS011;67396;42.664;23.382;2024-02-26T07:54:08;26.70;;;15.07;;
78148;SDS011;67396;42.664;23.382;2024-02-26T07:56:34;24.73;;;14.57;;
78148;SDS011;67396;42.664;23.382;2024-02-26T07:59:00;26.42;;;13.95;;
78148;SDS011;67396;42.664;23.382;2024-02-26T08:01:26;33.25;;;16.65;;
78148;SDS011;67396;42.664;23.382;2024-02-26T08:03:55;27.35;;;16.70;;
78148;SDS011;67396;42.664;23.382;2024-02-26T08:06:21;25.42;;;14.57;;
78148;SDS011;67396;42.664;23.382;2024-02-26T08:08:47;15.25;;;8.95;;
78148;SDS011;67396;42.664;23.382;2024-02-26T08:11:15;15.15;;;9.77;;
78148;SDS011;67396;42.664;23.382;2024-02-26T08:13:41;13.73;;;7.93;;
78148;SDS011;67396;42.664;23.382;2024-02-26T08:16:07;17.52;;;8.40;;
78148;SDS011;67396;42.664;23.382;2024-02-26T08:18:33;18.55;;;9.68;;
78148;SDS011;67396;42.664;23.382;2024-02-26T08:20:59;14.73;;;8.57;;
78148;SDS011;67396;42.664;23.382;2024-02-26T08:23:25;19.48;;;12.27;;
78148;SDS011;67396;42.664;23.382;2024-02-26T08:25:51;18.60;;;10.55;;
78148;SDS011;67396;42.664;23.382;2024-02-26T08:28:17;21.00;;;10.43;;
78148;SDS011;67396;42.664;23.382;2024-02-26T08:30:43;22.13;;;13.00;;
78148;SDS011;67396;42.664;23.382;2024-02-26T08:33:09;14.75;;;9.68;;
78148;SDS011;67396;42.664;23.382;2024-02-26T08:35:35;20.35;;;12.20;;
78148;SDS011;67396;42.664;23.382;2024-02-26T08:38:01;18.02;;;10.38;;
78148;SDS011;67396;42.664;23.382;2024-02-26T08:40:28;17.05;;;9.95;;
78148;SDS011;67396;42.664;23.382;2024-02-26T08:42:54;26.05;;;9.70;;
78148;SDS011;67396;42.664;23.382;2024-02-26T08:45:20;20.40;;;10.77;;
78148;SDS011;67396;42.664;23.382;2024-02-26T08:47:46;18.55;;;9.85;;
78148;SDS011;67396;42.664;23.382;2024-02-26T08:50:12;19.23;;;11.20;;
78148;SDS011;67396;42.664;23.382;2024-02-26T08:52:39;19.77;;;9.23;;
78148;SDS011;67396;42.664;23.382;2024-02-26T08:55:05;13.85;;;7.05;;
78148;SDS011;67396;42.664;23.382;2024-02-26T08:57:34;13.95;;;7.65;;
78148;SDS011;67396;42.664;23.382;2024-02-26T09:00:03;18.20;;;7.72;;
78148;SDS011;67396;42.664;23.382;2024-02-26T09:02:29;15.27;;;8.00;;
78148;SDS011;67396;42.664;23.382;2024-02-26T09:04:55;11.50;;;6.97;;
78148;SDS011;67396;42.664;23.382;2024-02-26T09:07:22;11.77;;;7.18;;
78148;SDS011;67396;42.664;23.382;2024-02-26T09:09:48;15.48;;;7.88;;
78148;SDS011;67396;42.664;23.382;2024-02-26T09:12:13;14.27;;;7.45;;
78148;SDS011;67396;42.664;23.382;2024-02-26T09:14:39;11.30;;;6.45;;
78148;SDS011;67396;42.664;23.382;2024-02-26T09:17:05;9.82;;;6.85;;
78148;SDS011;67396;42.664;23.382;2024-02-26T09:19:34;13.25;;;7.65;;
78148;SDS011;67396;42.664;23.382;2024-02-26T09:21:59;11.90;;;6.03;;
78148;SDS011;67396;42.664;23.382;2024-02-26T09:24:25;12.32;;;6.82;;
78148;SDS011;67396;42.664;23.382;2024-02-26T09:26:52;7.40;;;5.30;;
78148;SDS011;67396;42.664;23.382;2024-02-26T09:29:17;10.50;;;5.72;;
78148;SDS011;67396;42.664;23.382;2024-02-26T09:31:43;11.32;;;7.03;;
78148;SDS011;67396;42.664;23.382;2024-02-26T09:34:13;10.63;;;6.65;;
78148;SDS011;67396;42.664;23.382;2024-02-26T09:36:39;9.32;;;5.70;;
78148;SDS011;67396;42.664;23.382;2024-02-26T09:39:05;8.82;;;6.25;;
78148;SDS011;67396;42.664;23.382;2024-02-26T09:41:36;17.63;;;9.90;;
78148;SDS011;67396;42.664;23.382;2024-02-26T09:44:04;12.00;;;6.65;;
78148;SDS011;67396;42.664;23.382;2024-02-26T09:46:30;15.05;;;6.43;;
78148;SDS011;67396;42.664;23.382;2024-02-26T09:48:57;9.73;;;6.18;;
78148;SDS011;67396;42.664;23.382;2024-02-26T09:51:23;8.13;;;5.53;;
78148;SDS011;67396;42.664;23.382;2024-02-26T09:53:53;10.75;;;6.65;;
78148;SDS011;67396;42.664;23.382;2024-02-26T09:56:23;10.25;;;6.07;;
78148;SDS011;67396;42.664;23.382;2024-02-26T09:58:51;11.88;;;6.32;;
78148;SDS011;67396;42.664;23.382;2024-02-26T10:01:19;12.55;;;6.75;;
78148;SDS011;67396;42.664;23.382;2024-02-26T10:03:56;14.65;;;7.25;;
78148;SDS011;67396;42.664;23.382;2024-02-26T10:06:23;11.52;;;5.72;;
78148;SDS011;67396;42.664;23.382;2024-02-26T10:08:51;12.30;;;6.03;;
78148;SDS011;67396;42.664;23.382;2024-02-26T10:11:18;9.65;;;5.65;;
78148;SDS011;67396;42.664;23.382;2024-02-26T10:13:45;12.02;;;6.50;;
78148;SDS011;67396;42.664;23.382;2024-02-26T10:16:11;7.93;;;6.10;;
78148;SDS011;67396;42.664;23.382;2024-02-26T10:21:16;11.95;;;7.53;;
78148;SDS011;67396;42.664;23.382;2024-02-26T10:23:43;8.25;;;5.93;;
78148;SDS011;67396;42.664;23.382;2024-02-26T10:26:10;9.20;;;5.63;;
78148;SDS011;67396;42.664;23.382;2024-02-26T10:28:43;10.90;;;7.03;;
78148;SDS011;67396;42.664;23.382;2024-02-26T10:31:10;13.02;;;6.28;;
78148;SDS011;67396;42.664;23.382;2024-02-26T10:33:37;7.68;;;6.00;;
78148;SDS011;67396;42.664;23.382;2024-02-26T10:36:06;10.68;;;5.85;;
78148;SDS011;67396;42.664;23.382;2024-02-26T10:38:33;9.90;;;5.57;;
78148;SDS011;67396;42.664;23.382;2024-02-26T10:41:12;13.20;;;6.25;;
78148;SDS011;67396;42.664;23.382;2024-02-26T10:43:41;9.15;;;6.60;;
78148;SDS011;67396;42.664;23.382;2024-02-26T10:46:08;10.07;;;5.72;;
78148;SDS011;67396;42.664;23.382;2024-02-26T10:48:35;9.00;;;5.82;;
78148;SDS011;67396;42.664;23.382;2024-02-26T10:51:01;8.32;;;5.70;;
78148;SDS011;67396;42.664;23.382;2024-02-26T10:53:28;9.55;;;5.40;;
78148;SDS011;67396;42.664;23.382;2024-02-26T10:56:03;8.88;;;5.28;;
78148;SDS011;67396;42.664;23.382;2024-02-26T10:58:31;7.07;;;5.30;;
78148;SDS011;67396;42.664;23.382;2024-02-26T11:00:57;9.55;;;5.13;;
78148;SDS011;67396;42.664;23.382;2024-02-26T11:03:25;5.95;;;4.57;;
78148;SDS011;67396;42.664;23.382;2024-02-26T11:05:51;6.45;;;4.63;;
78148;SDS011;67396;42.664;23.382;2024-02-26T11:08:21;10.02;;;6.05;;
78148;SDS011;67396;42.664;23.382;2024-02-26T11:10:50;10.20;;;6.20;;
78148;SDS011;67396;42.664;23.382;2024-02-26T11:13:18;10.75;;;6.20;;
78148;SDS011;67396;42.664;23.382;2024-02-26T11:15:48;9.38;;;6.07;;
78148;SDS011;67396;42.664;23.382;2024-02-26T11:18:15;10.18;;;6.05;;
78148;SDS011;67396;42.664;23.382;2024-02-26T11:20:42;5.78;;;5.03;;
78148;SDS011;67396;42.664;23.382;2024-02-26T11:23:08;7.78;;;4.60;;
78148;SDS011;67396;42.664;23.382;2024-02-26T11:25:35;11.25;;;5.43;;
78148;SDS011;67396;42.664;23.382;2024-02-26T11:28:03;11.05;;;5.20;;
78148;SDS011;67396;42.664;23.382;2024-02-26T11:30:32;9.45;;;5.45;;
78148;SDS011;67396;42.664;23.382;2024-02-26T11:35:30;9.27;;;4.93;;
78148;SDS011;67396;42.664;23.382;2024-02-26T11:37:56;9.68;;;5.88;;
78148;SDS011;67396;42.664;23.382;2024-02-26T11:40:25;10.75;;;6.50;;
78148;SDS011;67396;42.664;23.382;2024-02-26T11:42:54;10.60;;;6.07;;
78148;SDS011;67396;42.664;23.382;2024-02-26T11:48:04;9.13;;;5.07;;
78148;SDS011;67396;42.664;23.382;2024-02-26T11:50:39;8.80;;;5.18;;
78148;SDS011;67396;42.664;23.382;2024-02-26T11:55:47;8.38;;;5.13;;
78148;SDS011;67396;42.664;23.382;2024-02-26T11:58:14;8.20;;;5.25;;
78148;SDS011;67396;42.664;23.382;2024-02-26T12:00:44;8.63;;;5.07;;
78148;SDS011;67396;42.664;23.382;2024-02-26T12:03:09;9.48;;;6.57;;
78148;SDS011;67396;42.664;23.382;2024-02-26T12:05:37;7.50;;;4.80;;
78148;SDS011;67396;42.664;23.382;2024-02-26T12:08:05;7.50;;;5.78;;
78148;SDS011;67396;42.664;23.382;2024-02-26T12:10:36;8.05;;;5.22;;
78148;SDS011;67396;42.664;23.382;2024-02-26T12:13:11;6.88;;;4.95;;
78148;SDS011;67396;42.664;23.382;2024-02-26T12:15:55;8.27;;;4.57;;
78148;SDS011;67396;42.664;23.382;2024-02-26T12:18:22;9.85;;;4.78;;
78148;SDS011;67396;42.664;23.382;2024-02-26T12:21:01;10.27;;;4.63;;
78148;SDS011;67396;42.664;23.382;2024-02-26T12:23:28;9.23;;;5.40;;
78148;SDS011;67396;42.664;23.382;2024-02-26T12:26:00;22.55;;;13.23;;
78148;SDS011;67396;42.664;23.382;2024-02-26T12:28:27;8.00;;;5.15;;
78148;SDS011;67396;42.664;23.382;2024-02-26T12:30:56;10.23;;;4.35;;
78148;SDS011;67396;42.664;23.382;2024-02-26T12:33:25;6.93;;;4.72;;
78148;SDS011;67396;42.664;23.382;2024-02-26T12:35:52;7.97;;;4.20;;
78148;SDS011;67396;42.664;23.382;2024-02-26T12:38:18;6.75;;;4.82;;
78148;SDS011;67396;42.664;23.382;2024-02-26T12:40:44;8.88;;;5.00;;
78148;SDS011;67396;42.664;23.382;2024-02-26T12:43:10;6.45;;;4.47;;
78148;SDS011;67396;42.664;23.382;2024-02-26T12:45:40;6.78;;;3.50;;
78148;SDS011;67396;42.664;23.382;2024-02-26T12:48:06;8.52;;;3.92;;
78148;SDS011;67396;42.664;23.382;2024-02-26T12:50:35;5.25;;;3.33;;
78148;SDS011;67396;42.664;23.382;2024-02-26T12:53:01;8.70;;;4.20;;
78148;SDS011;67396;42.664;23.382;2024-02-26T12:55:30;10.20;;;3.88;;
78148;SDS011;67396;42.664;23.382;2024-02-26T12:57:59;12.15;;;4.80;;
78148;SDS011;67396;42.664;23.382;2024-02-26T13:00:26;5.80;;;3.33;;
78148;SDS011;67396;42.664;23.382;2024-02-26T13:02:57;8.10;;;3.83;;
78148;SDS011;67396;42.664;23.382;2024-02-26T13:05:33;5.22;;;3.78;;
78148;SDS011;67396;42.664;23.382;2024-02-26T13:07:59;6.13;;;3.97;;
78148;SDS011;67396;42.664;23.382;2024-02-26T13:10:31;7.40;;;4.07;;
78148;SDS011;67396;42.664;23.382;2024-02-26T13:13:01;6.10;;;4.03;;
78148;SDS011;67396;42.664;23.382;2024-02-26T13:15:30;7.38;;;4.47;;
78148;SDS011;67396;42.664;23.382;2024-02-26T13:18:14;15.93;;;4.18;;
78148;SDS011;67396;42.664;23.382;2024-02-26T13:20:40;9.35;;;3.92;;
78148;SDS011;67396;42.664;23.382;2024-02-26T13:23:07;10.80;;;3.90;;
78148;SDS011;67396;42.664;23.382;2024-02-26T13:25:36;7.47;;;4.18;;
78148;SDS011;67396;42.664;23.382;2024-02-26T13:28:19;8.10;;;4.03;;
78148;SDS011;67396;42.664;23.382;2024-02-26T13:30:56;9.52;;;4.93;;
78148;SDS011;67396;42.664;23.382;2024-02-26T13:33:28;6.18;;;3.40;;
78148;SDS011;67396;42.664;23.382;2024-02-26T13:35:55;10.50;;;3.53;;
78148;SDS011;67396;42.664;23.382;2024-02-26T13:38:22;8.85;;;4.53;;
78148;SDS011;67396;42.664;23.382;2024-02-26T13:40:48;9.02;;;4.35;;
78148;SDS011;67396;42.664;23.382;2024-02-26T13:43:15;8.00;;;4.40;;
78148;SDS011;67396;42.664;23.382;2024-02-26T13:45:41;6.45;;;3.80;;
78148;SDS011;67396;42.664;23.382;2024-02-26T13:48:07;6.85;;;4.47;;
78148;SDS011;67396;42.664;23.382;2024-02-26T13:50:36;7.72;;;3.70;;
78148;SDS011;67396;42.664;23.382;2024-02-26T13:53:05;7.68;;;4.03;;
78148;SDS011;67396;42.664;23.382;2024-02-26T13:55:37;9.52;;;3.60;;
78148;SDS011;67396;42.664;23.382;2024-02-26T13:58:05;7.07;;;4.10;;
78148;SDS011;67396;42.664;23.382;2024-02-26T14:00:32;7.78;;;3.85;;
78148;SDS011;67396;42.664;23.382;2024-02-26T14:03:01;9.45;;;4.22;;
78148;SDS011;67396;42.664;23.382;2024-02-26T14:05:31;8.15;;;3.75;;
78148;SDS011;67396;42.664;23.382;2024-02-26T14:07:59;6.78;;;3.20;;
78148;SDS011;67396;42.664;23.382;2024-02-26T14:10:25;5.80;;;3.95;;
78148;SDS011;67396;42.664;23.382;2024-02-26T14:12:51;7.45;;;3.90;;
78148;SDS011;67396;42.664;23.382;2024-02-26T14:15:17;6.07;;;3.92;;
78148;SDS011;67396;42.664;23.382;2024-02-26T14:17:43;4.75;;;3.30;;
78148;SDS011;67396;42.664;23.382;2024-02-26T14:20:08;8.02;;;3.38;;
78148;SDS011;67396;42.664;23.382;2024-02-26T14:22:34;7.82;;;3.60;;
78148;SDS011;67396;42.664;23.382;2024-02-26T14:25:00;5.63;;;3.15;;
78148;SDS011;67396;42.664;23.382;2024-02-26T14:27:26;6.97;;;3.22;;